Terminal Aerodrome Forecast
Issued by NWS Sioux Falls, SD

Home | Current Version | Previous Version | Graphics & Text | Print | Product List | Glossary Off
Versions: 1 2 3 4 5 6 7 8 9 10 11 12 13 14

350
FTUS43 KFSD 091127
TAFFSD
TAF
KFSD 091127Z 0912/1012 35011G17KT P6SM BKN020
     FM091700 33009KT P6SM SCT025
     FM091900 31008KT P6SM SCT200=

USA.gov is the U.S. government's official web portal to all federal, state and local government web resources and services.